sensor_id;sensor_type;location;lat;lon;timestamp;pressure;altitude;pressure_sealevel;temperature;humidity
63339;BME280;47485;51.378;-1.342;2022-08-14T00:01:09;99699.64;;;25.06;14.32
63339;BME280;47485;51.378;-1.342;2022-08-14T00:03:36;99693.91;;;26.46;14.37
63339;BME280;47485;51.378;-1.342;2022-08-14T00:06:03;99692.41;;;24.98;14.57
63339;BME280;47485;51.378;-1.342;2022-08-14T00:08:30;99689.68;;;25.40;14.86
63339;BME280;47485;51.378;-1.342;2022-08-14T00:10:58;99686.58;;;25.16;14.58
63339;BME280;47485;51.378;-1.342;2022-08-14T00:13:25;99686.05;;;25.19;14.91
63339;BME280;47485;51.378;-1.342;2022-08-14T00:15:52;99685.05;;;25.31;14.79
63339;BME280;47485;51.378;-1.342;2022-08-14T00:18:20;99687.07;;;23.78;15.28
63339;BME280;47485;51.378;-1.342;2022-08-14T00:20:47;99683.74;;;25.24;15.07
63339;BME280;47485;51.378;-1.342;2022-08-14T00:23:16;99687.58;;;23.37;15.76
63339;BME280;47485;51.378;-1.342;2022-08-14T00:25:46;99680.38;;;23.20;15.47
63339;BME280;47485;51.378;-1.342;2022-08-14T00:28:13;99673.49;;;24.58;15.63
63339;BME280;47485;51.378;-1.342;2022-08-14T00:30:40;99671.98;;;23.66;15.71
63339;BME280;47485;51.378;-1.342;2022-08-14T00:33:08;99674.78;;;22.05;16.50
63339;BME280;47485;51.378;-1.342;2022-08-14T00:35:35;99674.38;;;20.28;17.02
63339;BME280;47485;51.378;-1.342;2022-08-14T00:38:02;99671.32;;;22.21;16.86
63339;BME280;47485;51.378;-1.342;2022-08-14T00:40:29;99668.18;;;21.47;16.39
63339;BME280;47485;51.378;-1.342;2022-08-14T00:42:56;99666.82;;;22.00;16.43
63339;BME280;47485;51.378;-1.342;2022-08-14T00:45:23;99665.68;;;24.08;15.45
63339;BME280;47485;51.378;-1.342;2022-08-14T00:47:49;99661.50;;;23.47;15.23
63339;BME280;47485;51.378;-1.342;2022-08-14T00:50:18;99660.11;;;24.92;15.28
63339;BME280;47485;51.378;-1.342;2022-08-14T00:52:47;99659.70;;;23.46;15.70
63339;BME280;47485;51.378;-1.342;2022-08-14T00:55:14;99663.79;;;24.01;15.97
63339;BME280;47485;51.378;-1.342;2022-08-14T00:57:40;99664.40;;;21.64;16.85
63339;BME280;47485;51.378;-1.342;2022-08-14T01:00:11;99661.71;;;23.02;16.94
63339;BME280;47485;51.378;-1.342;2022-08-14T01:02:40;99661.95;;;19.22;17.83
63339;BME280;47485;51.378;-1.342;2022-08-14T01:05:07;99660.44;;;22.07;16.95
63339;BME280;47485;51.378;-1.342;2022-08-14T01:07:34;99655.29;;;23.35;15.82
63339;BME280;47485;51.378;-1.342;2022-08-14T01:10:03;99655.88;;;25.30;15.30
63339;BME280;47485;51.378;-1.342;2022-08-14T01:12:30;99656.89;;;24.56;15.53
63339;BME280;47485;51.378;-1.342;2022-08-14T01:14:59;99661.51;;;24.12;15.93
63339;BME280;47485;51.378;-1.342;2022-08-14T01:17:28;99668.23;;;24.18;16.47
63339;BME280;47485;51.378;-1.342;2022-08-14T01:19:55;99666.58;;;23.21;16.70
63339;BME280;47485;51.378;-1.342;2022-08-14T01:22:23;99662.03;;;24.42;17.02
63339;BME280;47485;51.378;-1.342;2022-08-14T01:24:50;99657.70;;;23.46;17.28
63339;BME280;47485;51.378;-1.342;2022-08-14T01:27:19;99655.56;;;20.17;18.72
63339;BME280;47485;51.378;-1.342;2022-08-14T01:29:47;99652.20;;;21.54;17.52
63339;BME280;47485;51.378;-1.342;2022-08-14T01:32:15;99652.34;;;20.02;18.31
63339;BME280;47485;51.378;-1.342;2022-08-14T01:34:42;99646.66;;;20.52;17.08
63339;BME280;47485;51.378;-1.342;2022-08-14T01:37:10;99643.98;;;18.43;18.63
63339;BME280;47485;51.378;-1.342;2022-08-14T01:39:37;99641.32;;;20.55;17.46
63339;BME280;47485;51.378;-1.342;2022-08-14T01:42:04;99638.30;;;19.81;17.19
63339;BME280;47485;51.378;-1.342;2022-08-14T01:44:31;99631.55;;;23.37;16.20
63339;BME280;47485;51.378;-1.342;2022-08-14T01:46:59;99630.48;;;23.05;16.11
63339;BME280;47485;51.378;-1.342;2022-08-14T01:49:27;99630.10;;;18.21;18.20
63339;BME280;47485;51.378;-1.342;2022-08-14T01:51:55;99626.92;;;20.28;17.27
63339;BME280;47485;51.378;-1.342;2022-08-14T01:54:23;99621.51;;;20.16;17.19
63339;BME280;47485;51.378;-1.342;2022-08-14T01:56:51;99622.61;;;17.68;18.96
63339;BME280;47485;51.378;-1.342;2022-08-14T01:59:20;99616.71;;;15.73;20.25
63339;BME280;47485;51.378;-1.342;2022-08-14T02:01:49;99621.42;;;8.98;25.91
63339;BME280;47485;51.378;-1.342;2022-08-14T02:04:16;99611.11;;;15.57;21.74
63339;BME280;47485;51.378;-1.342;2022-08-14T02:06:44;99610.02;;;16.28;20.98
63339;BME280;47485;51.378;-1.342;2022-08-14T02:09:11;99607.95;;;21.03;18.72
63339;BME280;47485;51.378;-1.342;2022-08-14T02:11:38;99603.80;;;21.04;17.89
63339;BME280;47485;51.378;-1.342;2022-08-14T02:14:07;99598.74;;;23.50;17.89
63339;BME280;47485;51.378;-1.342;2022-08-14T02:16:38;99592.43;;;22.55;18.06
63339;BME280;47485;51.378;-1.342;2022-08-14T02:19:07;99588.51;;;22.00;18.12
63339;BME280;47485;51.378;-1.342;2022-08-14T02:21:35;99587.04;;;21.73;17.80
63339;BME280;47485;51.378;-1.342;2022-08-14T02:24:04;99584.39;;;21.36;18.39
63339;BME280;47485;51.378;-1.342;2022-08-14T02:26:33;99580.84;;;21.44;17.54
63339;BME280;47485;51.378;-1.342;2022-08-14T02:29:03;99577.17;;;22.33;17.33
63339;BME280;47485;51.378;-1.342;2022-08-14T02:31:32;99575.37;;;22.59;17.92
63339;BME280;47485;51.378;-1.342;2022-08-14T02:34:02;99575.86;;;21.86;18.36
63339;BME280;47485;51.378;-1.342;2022-08-14T02:36:29;99576.67;;;21.21;18.93
63339;BME280;47485;51.378;-1.342;2022-08-14T02:38:56;99577.19;;;21.10;19.01
63339;BME280;47485;51.378;-1.342;2022-08-14T02:41:23;99576.06;;;21.97;19.12
63339;BME280;47485;51.378;-1.342;2022-08-14T02:43:50;99577.00;;;20.75;19.28
63339;BME280;47485;51.378;-1.342;2022-08-14T02:46:17;99578.02;;;20.91;19.13
63339;BME280;47485;51.378;-1.342;2022-08-14T02:48:44;99579.21;;;21.95;18.99
63339;BME280;47485;51.378;-1.342;2022-08-14T02:51:13;99579.22;;;20.65;19.35
63339;BME280;47485;51.378;-1.342;2022-08-14T02:53:42;99587.37;;;19.88;19.79
63339;BME280;47485;51.378;-1.342;2022-08-14T02:56:11;99588.51;;;20.69;20.14
63339;BME280;47485;51.378;-1.342;2022-08-14T02:58:42;99587.39;;;19.39;20.37
63339;BME280;47485;51.378;-1.342;2022-08-14T03:01:09;99587.24;;;19.97;20.55
63339;BME280;47485;51.378;-1.342;2022-08-14T03:03:37;99584.17;;;20.10;20.51
63339;BME280;47485;51.378;-1.342;2022-08-14T03:06:05;99583.06;;;20.30;20.40
63339;BME280;47485;51.378;-1.342;2022-08-14T03:08:34;99582.68;;;20.11;19.89
63339;BME280;47485;51.378;-1.342;2022-08-14T03:11:03;99583.37;;;19.75;19.59
63339;BME280;47485;51.378;-1.342;2022-08-14T03:13:30;99581.64;;;19.28;19.51
63339;BME280;47485;51.378;-1.342;2022-08-14T03:15:56;99579.76;;;20.07;19.14
63339;BME280;47485;51.378;-1.342;2022-08-14T03:18:25;99575.90;;;21.31;18.71
63339;BME280;47485;51.378;-1.342;2022-08-14T03:20:52;99577.62;;;20.30;18.63
63339;BME280;47485;51.378;-1.342;2022-08-14T03:23:19;99579.20;;;21.06;18.20
63339;BME280;47485;51.378;-1.342;2022-08-14T03:25:46;99579.05;;;20.88;18.02
63339;BME280;47485;51.378;-1.342;2022-08-14T03:28:14;99579.40;;;22.38;18.01
63339;BME280;47485;51.378;-1.342;2022-08-14T03:30:41;99577.62;;;21.20;18.39
63339;BME280;47485;51.378;-1.342;2022-08-14T03:33:10;99577.48;;;22.34;18.32
63339;BME280;47485;51.378;-1.342;2022-08-14T03:35:37;99577.77;;;22.20;18.58
63339;BME280;47485;51.378;-1.342;2022-08-14T03:38:05;99575.71;;;19.75;18.70
63339;BME280;47485;51.378;-1.342;2022-08-14T03:40:32;99570.49;;;19.55;18.75
63339;BME280;47485;51.378;-1.342;2022-08-14T03:42:59;99568.71;;;21.11;18.82
63339;BME280;47485;51.378;-1.342;2022-08-14T03:45:25;99567.84;;;21.10;18.93
63339;BME280;47485;51.378;-1.342;2022-08-14T03:47:52;99569.51;;;20.28;19.36
63339;BME280;47485;51.378;-1.342;2022-08-14T03:50:19;99565.23;;;22.17;18.98
63339;BME280;47485;51.378;-1.342;2022-08-14T03:52:46;99565.29;;;16.97;20.51
63339;BME280;47485;51.378;-1.342;2022-08-14T03:55:13;99563.11;;;20.51;19.11
63339;BME280;47485;51.378;-1.342;2022-08-14T03:57:40;99558.45;;;21.89;18.61
63339;BME280;47485;51.378;-1.342;2022-08-14T04:00:09;99560.45;;;18.98;19.61
63339;BME280;47485;51.378;-1.342;2022-08-14T04:02:37;99557.19;;;20.94;18.46
63339;BME280;47485;51.378;-1.342;2022-08-14T04:05:05;99561.22;;;19.90;18.74
63339;BME280;47485;51.378;-1.342;2022-08-14T04:07:32;99559.42;;;20.24;18.53
63339;BME280;47485;51.378;-1.342;2022-08-14T04:10:00;99559.79;;;18.65;19.30
63339;BME280;47485;51.378;-1.342;2022-08-14T04:12:26;99557.21;;;20.29;18.39
63339;BME280;47485;51.378;-1.342;2022-08-14T04:14:53;99550.38;;;22.28;17.63
63339;BME280;47485;51.378;-1.342;2022-08-14T04:17:21;99546.43;;;21.65;17.69
63339;BME280;47485;51.378;-1.342;2022-08-14T04:19:47;99544.76;;;22.08;17.77
63339;BME280;47485;51.378;-1.342;2022-08-14T04:22:14;99542.70;;;20.95;17.97
63339;BME280;47485;51.378;-1.342;2022-08-14T04:24:40;99536.29;;;22.13;18.19
63339;BME280;47485;51.378;-1.342;2022-08-14T04:27:08;99531.74;;;21.53;18.19
63339;BME280;47485;51.378;-1.342;2022-08-14T04:29:37;99529.68;;;21.68;18.14
63339;BME280;47485;51.378;-1.342;2022-08-14T04:32:05;99528.46;;;21.33;18.30
63339;BME280;47485;51.378;-1.342;2022-08-14T04:34:33;99530.86;;;21.93;18.71
63339;BME280;47485;51.378;-1.342;2022-08-14T04:37:01;99530.66;;;20.86;19.01
63339;BME280;47485;51.378;-1.342;2022-08-14T04:39:29;99532.24;;;20.46;18.96
63339;BME280;47485;51.378;-1.342;2022-08-14T04:41:56;99529.62;;;21.62;19.46
63339;BME280;47485;51.378;-1.342;2022-08-14T04:44:23;99527.54;;;20.66;19.43
63339;BME280;47485;51.378;-1.342;2022-08-14T04:46:50;99524.33;;;21.40;19.67
63339;BME280;47485;51.378;-1.342;2022-08-14T04:49:17;99523.29;;;20.77;20.02
63339;BME280;47485;51.378;-1.342;2022-08-14T04:51:44;99519.33;;;19.88;20.30
63339;BME280;47485;51.378;-1.342;2022-08-14T04:54:11;99518.07;;;19.44;20.57
63339;BME280;47485;51.378;-1.342;2022-08-14T04:56:38;99523.01;;;20.20;20.51
63339;BME280;47485;51.378;-1.342;2022-08-14T04:59:05;99523.53;;;19.60;20.36
63339;BME280;47485;51.378;-1.342;2022-08-14T05:01:31;99520.41;;;19.67;20.00
63339;BME280;47485;51.378;-1.342;2022-08-14T05:03:58;99515.40;;;20.38;19.52
63339;BME280;47485;51.378;-1.342;2022-08-14T05:06:25;99516.57;;;19.40;19.78
63339;BME280;47485;51.378;-1.342;2022-08-14T05:08:53;99513.44;;;21.35;19.58
63339;BME280;47485;51.378;-1.342;2022-08-14T05:11:19;99509.98;;;20.60;19.43
63339;BME280;47485;51.378;-1.342;2022-08-14T05:13:46;99509.41;;;19.48;19.23
63339;BME280;47485;51.378;-1.342;2022-08-14T05:16:13;99506.83;;;18.69;19.95
63339;BME280;47485;51.378;-1.342;2022-08-14T05:18:40;99506.17;;;21.04;18.62
63339;BME280;47485;51.378;-1.342;2022-08-14T05:21:08;99507.13;;;21.75;18.56
63339;BME280;47485;51.378;-1.342;2022-08-14T05:23:37;99505.24;;;21.33;18.74
63339;BME280;47485;51.378;-1.342;2022-08-14T05:26:05;99508.28;;;20.60;19.14
63339;BME280;47485;51.378;-1.342;2022-08-14T05:28:34;99506.50;;;19.65;19.44
63339;BME280;47485;51.378;-1.342;2022-08-14T05:31:06;99508.24;;;19.55;19.66
63339;BME280;47485;51.378;-1.342;2022-08-14T05:33:35;99504.72;;;19.40;19.46
63339;BME280;47485;51.378;-1.342;2022-08-14T05:36:05;99502.23;;;19.26;19.27
63339;BME280;47485;51.378;-1.342;2022-08-14T05:38:35;99501.05;;;18.51;20.33
63339;BME280;47485;51.378;-1.342;2022-08-14T05:41:04;99500.25;;;18.25;19.46
63339;BME280;47485;51.378;-1.342;2022-08-14T05:43:32;99499.43;;;17.58;20.10
63339;BME280;47485;51.378;-1.342;2022-08-14T05:45:59;99499.36;;;19.91;19.15
63339;BME280;47485;51.378;-1.342;2022-08-14T05:48:28;99492.68;;;21.09;17.89
63339;BME280;47485;51.378;-1.342;2022-08-14T05:50:55;99492.65;;;21.71;18.03
63339;BME280;47485;51.378;-1.342;2022-08-14T05:53:24;99494.53;;;21.74;18.36
63339;BME280;47485;51.378;-1.342;2022-08-14T05:55:52;99491.93;;;21.97;18.69
63339;BME280;47485;51.378;-1.342;2022-08-14T05:58:19;99493.95;;;20.98;19.05
63339;BME280;47485;51.378;-1.342;2022-08-14T06:00:47;99489.64;;;21.51;18.92
63339;BME280;47485;51.378;-1.342;2022-08-14T06:03:17;99488.92;;;20.92;18.88
63339;BME280;47485;51.378;-1.342;2022-08-14T06:05:44;99489.65;;;20.68;18.71
63339;BME280;47485;51.378;-1.342;2022-08-14T06:08:15;99490.51;;;20.94;18.69
63339;BME280;47485;51.378;-1.342;2022-08-14T06:10:42;99491.01;;;21.32;18.63
63339;BME280;47485;51.378;-1.342;2022-08-14T06:13:09;99487.44;;;22.01;18.63
63339;BME280;47485;51.378;-1.342;2022-08-14T06:15:37;99488.01;;;21.66;18.86
63339;BME280;47485;51.378;-1.342;2022-08-14T06:18:03;99489.12;;;20.26;19.07
63339;BME280;47485;51.378;-1.342;2022-08-14T06:20:30;99493.41;;;21.75;19.06
63339;BME280;47485;51.378;-1.342;2022-08-14T06:22:57;99495.68;;;20.13;19.86
63339;BME280;47485;51.378;-1.342;2022-08-14T06:25:24;99496.45;;;19.94;19.28
63339;BME280;47485;51.378;-1.342;2022-08-14T06:27:51;99499.04;;;21.38;19.22
63339;BME280;47485;51.378;-1.342;2022-08-14T06:30:20;99501.24;;;22.39;18.75
63339;BME280;47485;51.378;-1.342;2022-08-14T06:32:47;99500.45;;;21.75;18.92
63339;BME280;47485;51.378;-1.342;2022-08-14T06:35:15;99505.12;;;21.04;19.03
63339;BME280;47485;51.378;-1.342;2022-08-14T06:37:42;99501.71;;;22.07;18.49
63339;BME280;47485;51.378;-1.342;2022-08-14T06:40:10;99504.38;;;21.40;18.99
63339;BME280;47485;51.378;-1.342;2022-08-14T06:42:38;99502.60;;;22.02;18.12
63339;BME280;47485;51.378;-1.342;2022-08-14T06:45:06;99500.86;;;22.28;18.02
63339;BME280;47485;51.378;-1.342;2022-08-14T06:47:34;99510.63;;;20.48;19.56
63339;BME280;47485;51.378;-1.342;2022-08-14T06:50:01;99511.07;;;19.66;19.63
63339;BME280;47485;51.378;-1.342;2022-08-14T06:52:28;99511.75;;;19.70;19.81
63339;BME280;47485;51.378;-1.342;2022-08-14T06:54:55;99507.23;;;20.80;19.17
63339;BME280;47485;51.378;-1.342;2022-08-14T06:57:22;99506.24;;;19.84;18.88
63339;BME280;47485;51.378;-1.342;2022-08-14T06:59:49;99500.76;;;21.18;18.60
63339;BME280;47485;51.378;-1.342;2022-08-14T07:02:16;99499.60;;;21.80;18.79
63339;BME280;47485;51.378;-1.342;2022-08-14T07:04:42;99496.79;;;20.51;18.77
63339;BME280;47485;51.378;-1.342;2022-08-14T07:07:09;99492.08;;;22.00;18.70
63339;BME280;47485;51.378;-1.342;2022-08-14T07:09:36;99493.64;;;20.47;19.10
63339;BME280;47485;51.378;-1.342;2022-08-14T07:12:03;99493.06;;;21.24;18.53
63339;BME280;47485;51.378;-1.342;2022-08-14T07:14:30;99496.69;;;19.97;20.08
63339;BME280;47485;51.378;-1.342;2022-08-14T07:16:57;99495.90;;;22.95;18.50
63339;BME280;47485;51.378;-1.342;2022-08-14T07:19:24;99491.03;;;22.64;18.34
63339;BME280;47485;51.378;-1.342;2022-08-14T07:21:51;99488.84;;;23.58;17.67
63339;BME280;47485;51.378;-1.342;2022-08-14T07:24:18;99485.10;;;22.10;18.02
63339;BME280;47485;51.378;-1.342;2022-08-14T07:26:44;99482.82;;;17.46;21.48
63339;BME280;47485;51.378;-1.342;2022-08-14T07:29:12;99477.25;;;21.80;19.19
63339;BME280;47485;51.378;-1.342;2022-08-14T07:31:39;99477.58;;;20.90;19.34
63339;BME280;47485;51.378;-1.342;2022-08-14T07:34:06;99474.20;;;21.68;19.59
63339;BME280;47485;51.378;-1.342;2022-08-14T07:36:32;99472.13;;;20.59;19.22
63339;BME280;47485;51.378;-1.342;2022-08-14T07:39:00;99467.41;;;21.34;19.10
63339;BME280;47485;51.378;-1.342;2022-08-14T07:41:27;99468.03;;;21.35;19.11
63339;BME280;47485;51.378;-1.342;2022-08-14T07:43:54;99467.42;;;23.54;18.79
63339;BME280;47485;51.378;-1.342;2022-08-14T07:46:21;99466.70;;;21.14;19.54
63339;BME280;47485;51.378;-1.342;2022-08-14T07:48:47;99469.87;;;21.56;19.28
63339;BME280;47485;51.378;-1.342;2022-08-14T07:51:14;99470.29;;;19.70;19.79
63339;BME280;47485;51.378;-1.342;2022-08-14T07:53:40;99466.44;;;21.47;19.71
63339;BME280;47485;51.378;-1.342;2022-08-14T07:56:07;99462.94;;;21.03;19.53
63339;BME280;47485;51.378;-1.342;2022-08-14T07:58:34;99458.53;;;22.20;19.12
63339;BME280;47485;51.378;-1.342;2022-08-14T08:01:01;99458.66;;;22.40;18.87
63339;BME280;47485;51.378;-1.342;2022-08-14T08:03:28;99454.11;;;22.58;18.52
63339;BME280;47485;51.378;-1.342;2022-08-14T08:05:59;99450.64;;;21.19;19.14
63339;BME280;47485;51.378;-1.342;2022-08-14T08:08:29;99445.19;;;22.99;18.33
63339;BME280;47485;51.378;-1.342;2022-08-14T08:10:56;99442.35;;;23.11;18.06
63339;BME280;47485;51.378;-1.342;2022-08-14T08:13:25;99441.50;;;24.30;18.24
63339;BME280;47485;51.378;-1.342;2022-08-14T08:15:55;99439.57;;;22.98;18.50
63339;BME280;47485;51.378;-1.342;2022-08-14T08:18:22;99436.48;;;22.89;18.25
63339;BME280;47485;51.378;-1.342;2022-08-14T08:20:50;99432.05;;;23.86;18.25
63339;BME280;47485;51.378;-1.342;2022-08-14T08:23:19;99427.51;;;25.97;17.58
63339;BME280;47485;51.378;-1.342;2022-08-14T08:25:48;99425.85;;;24.53;17.70
63339;BME280;47485;51.378;-1.342;2022-08-14T08:28:16;99418.09;;;23.84;17.16
63339;BME280;47485;51.378;-1.342;2022-08-14T08:30:47;99418.32;;;22.33;18.55
63339;BME280;47485;51.378;-1.342;2022-08-14T08:33:15;99410.06;;;24.47;17.33
63339;BME280;47485;51.378;-1.342;2022-08-14T08:35:42;99404.15;;;25.95;16.74
63339;BME280;47485;51.378;-1.342;2022-08-14T08:38:12;99403.52;;;23.59;17.43
63339;BME280;47485;51.378;-1.342;2022-08-14T08:40:42;99398.73;;;27.21;15.66
63339;BME280;47485;51.378;-1.342;2022-08-14T08:43:18;99399.44;;;22.90;17.26
63339;BME280;47485;51.378;-1.342;2022-08-14T08:45:53;99393.95;;;25.12;16.55
63339;BME280;47485;51.378;-1.342;2022-08-14T08:48:21;99390.39;;;25.44;16.59
63339;BME280;47485;51.378;-1.342;2022-08-14T08:50:49;99388.90;;;25.44;15.86
63339;BME280;47485;51.378;-1.342;2022-08-14T08:53:17;99391.39;;;22.62;17.25
63339;BME280;47485;51.378;-1.342;2022-08-14T08:55:44;99387.22;;;28.25;15.16
63339;BME280;47485;51.378;-1.342;2022-08-14T08:58:15;99385.96;;;25.03;16.44
63339;BME280;47485;51.378;-1.342;2022-08-14T09:00:47;99389.74;;;24.22;16.97
63339;BME280;47485;51.378;-1.342;2022-08-14T09:03:17;99395.00;;;21.57;18.21
63339;BME280;47485;51.378;-1.342;2022-08-14T09:05:53;99389.53;;;24.81;15.49
63339;BME280;47485;51.378;-1.342;2022-08-14T09:08:22;99390.23;;;25.35;15.87
63339;BME280;47485;51.378;-1.342;2022-08-14T09:10:50;99392.39;;;22.33;17.13
63339;BME280;47485;51.378;-1.342;2022-08-14T09:13:17;99392.74;;;26.53;15.43
63339;BME280;47485;51.378;-1.342;2022-08-14T09:15:45;99390.60;;;27.93;14.79
63339;BME280;47485;51.378;-1.342;2022-08-14T09:18:14;99395.64;;;26.24;15.39
63339;BME280;47485;51.378;-1.342;2022-08-14T09:20:44;99395.13;;;22.94;17.17
63339;BME280;47485;51.378;-1.342;2022-08-14T09:23:13;99389.53;;;26.03;15.85
63339;BME280;47485;51.378;-1.342;2022-08-14T09:25:42;99386.85;;;24.41;15.82
63339;BME280;47485;51.378;-1.342;2022-08-14T09:28:10;99387.66;;;24.78;15.37
63339;BME280;47485;51.378;-1.342;2022-08-14T09:30:41;99384.93;;;25.39;15.30
63339;BME280;47485;51.378;-1.342;2022-08-14T09:33:25;99380.54;;;24.01;15.64
63339;BME280;47485;51.378;-1.342;2022-08-14T09:36:12;99379.42;;;20.82;18.08
63339;BME280;47485;51.378;-1.342;2022-08-14T09:38:46;99372.12;;;25.97;15.60
63339;BME280;47485;51.378;-1.342;2022-08-14T09:44:06;99368.58;;;25.78;16.51
63339;BME280;47485;51.378;-1.342;2022-08-14T09:46:34;99372.17;;;22.63;17.66
63339;BME280;47485;51.378;-1.342;2022-08-14T09:49:03;99368.85;;;23.95;17.48
63339;BME280;47485;51.378;-1.342;2022-08-14T09:51:31;99367.96;;;24.68;16.71
63339;BME280;47485;51.378;-1.342;2022-08-14T09:54:01;99365.36;;;24.54;15.50
63339;BME280;47485;51.378;-1.342;2022-08-14T09:56:28;99364.35;;;26.37;14.33
63339;BME280;47485;51.378;-1.342;2022-08-14T09:58:57;99361.56;;;25.58;14.40
63339;BME280;47485;51.378;-1.342;2022-08-14T10:01:35;99357.58;;;22.76;16.22
63339;BME280;47485;51.378;-1.342;2022-08-14T10:04:06;99359.60;;;26.80;13.97
63339;BME280;47485;51.378;-1.342;2022-08-14T10:06:43;99359.04;;;24.85;14.85
63339;BME280;47485;51.378;-1.342;2022-08-14T10:09:10;99355.46;;;24.66;14.83
63339;BME280;47485;51.378;-1.342;2022-08-14T10:11:38;99354.60;;;22.81;16.48
63339;BME280;47485;51.378;-1.342;2022-08-14T10:14:14;99352.21;;;25.77;15.00
63339;BME280;47485;51.378;-1.342;2022-08-14T10:16:42;99349.73;;;24.75;15.45
63339;BME280;47485;51.378;-1.342;2022-08-14T10:19:10;99346.62;;;25.84;13.33
63339;BME280;47485;51.378;-1.342;2022-08-14T10:21:39;99347.27;;;24.68;13.76
63339;BME280;47485;51.378;-1.342;2022-08-14T10:24:09;99343.38;;;20.74;16.46
63339;BME280;47485;51.378;-1.342;2022-08-14T10:26:36;99343.86;;;24.52;15.37
63339;BME280;47485;51.378;-1.342;2022-08-14T10:29:05;99338.72;;;23.21;14.42
63339;BME280;47485;51.378;-1.342;2022-08-14T10:31:32;99338.78;;;26.01;12.78
63339;BME280;47485;51.378;-1.342;2022-08-14T10:34:02;99328.88;;;28.62;11.94
63339;BME280;47485;51.378;-1.342;2022-08-14T10:36:33;99327.89;;;28.35;12.20
63339;BME280;47485;51.378;-1.342;2022-08-14T10:39:01;99333.50;;;25.77;13.80
63339;BME280;47485;51.378;-1.342;2022-08-14T10:41:39;99324.65;;;29.05;12.54
63339;BME280;47485;51.378;-1.342;2022-08-14T10:44:09;99323.85;;;26.73;12.13
63339;BME280;47485;51.378;-1.342;2022-08-14T10:46:39;99316.29;;;29.28;11.02
63339;BME280;47485;51.378;-1.342;2022-08-14T10:49:16;99318.19;;;29.80;11.01
63339;BME280;47485;51.378;-1.342;2022-08-14T10:51:54;99315.09;;;27.23;11.94
63339;BME280;47485;51.378;-1.342;2022-08-14T10:54:30;99309.44;;;26.69;11.70
63339;BME280;47485;51.378;-1.342;2022-08-14T10:56:57;99308.42;;;26.35;12.51
63339;BME280;47485;51.378;-1.342;2022-08-14T10:59:24;99304.29;;;26.11;12.01
63339;BME280;47485;51.378;-1.342;2022-08-14T11:01:51;99298.57;;;31.02;9.70
63339;BME280;47485;51.378;-1.342;2022-08-14T11:04:20;99301.84;;;23.66;12.33
63339;BME280;47485;51.378;-1.342;2022-08-14T11:06:51;99294.05;;;28.51;10.13
63339;BME280;47485;51.378;-1.342;2022-08-14T11:09:18;99295.80;;;29.50;9.56
63339;BME280;47485;51.378;-1.342;2022-08-14T11:11:45;99289.14;;;28.72;9.39
63339;BME280;47485;51.378;-1.342;2022-08-14T11:14:15;99288.45;;;29.25;9.52
63339;BME280;47485;51.378;-1.342;2022-08-14T11:16:42;99282.81;;;28.87;9.56
63339;BME280;47485;51.378;-1.342;2022-08-14T11:19:11;99281.71;;;28.48;10.11
63339;BME280;47485;51.378;-1.342;2022-08-14T11:21:40;99280.85;;;28.53;9.21
63339;BME280;47485;51.378;-1.342;2022-08-14T11:24:10;99271.73;;;30.31;8.77
63339;BME280;47485;51.378;-1.342;2022-08-14T11:26:39;99268.35;;;30.42;9.31
63339;BME280;47485;51.378;-1.342;2022-08-14T11:29:10;99272.30;;;26.17;10.89
63339;BME280;47485;51.378;-1.342;2022-08-14T11:31:37;99270.41;;;27.66;10.19
63339;BME280;47485;51.378;-1.342;2022-08-14T11:34:04;99269.85;;;27.80;9.55
63339;BME280;47485;51.378;-1.342;2022-08-14T11:36:31;99272.59;;;26.82;9.64
63339;BME280;47485;51.378;-1.342;2022-08-14T11:38:58;99270.57;;;28.61;9.60
63339;BME280;47485;51.378;-1.342;2022-08-14T11:41:25;99269.36;;;27.79;9.74
63339;BME280;47485;51.378;-1.342;2022-08-14T11:43:51;99265.87;;;27.60;9.35
63339;BME280;47485;51.378;-1.342;2022-08-14T11:46:19;99266.40;;;27.79;9.33
63339;BME280;47485;51.378;-1.342;2022-08-14T11:48:47;99260.33;;;26.51;9.96
63339;BME280;47485;51.378;-1.342;2022-08-14T11:51:16;99263.19;;;27.59;10.11
63339;BME280;47485;51.378;-1.342;2022-08-14T11:53:49;99263.52;;;29.00;8.89
63339;BME280;47485;51.378;-1.342;2022-08-14T11:56:16;99264.06;;;30.46;7.38
63339;BME280;47485;51.378;-1.342;2022-08-14T11:58:49;99263.26;;;30.15;7.87
63339;BME280;47485;51.378;-1.342;2022-08-14T12:01:23;99258.48;;;28.14;8.34
63339;BME280;47485;51.378;-1.342;2022-08-14T12:03:50;99262.65;;;27.97;10.13
63339;BME280;47485;51.378;-1.342;2022-08-14T12:06:18;99264.57;;;29.39;9.09
63339;BME280;47485;51.378;-1.342;2022-08-14T12:08:45;99264.17;;;29.22;7.69
63339;BME280;47485;51.378;-1.342;2022-08-14T12:11:14;99260.04;;;27.25;8.31
63339;BME280;47485;51.378;-1.342;2022-08-14T12:13:42;99254.46;;;30.65;7.48
63339;BME280;47485;51.378;-1.342;2022-08-14T12:16:10;99250.05;;;29.31;8.31
63339;BME280;47485;51.378;-1.342;2022-08-14T12:18:40;99244.84;;;30.30;8.26
63339;BME280;47485;51.378;-1.342;2022-08-14T12:21:12;99242.22;;;30.94;8.03
63339;BME280;47485;51.378;-1.342;2022-08-14T12:23:40;99240.44;;;30.31;8.13
63339;BME280;47485;51.378;-1.342;2022-08-14T12:26:08;99235.71;;;29.54;7.98
63339;BME280;47485;51.378;-1.342;2022-08-14T12:28:36;99232.80;;;30.97;7.81
63339;BME280;47485;51.378;-1.342;2022-08-14T12:31:12;99234.16;;;28.98;9.49
63339;BME280;47485;51.378;-1.342;2022-08-14T12:33:40;99230.60;;;29.24;9.06
63339;BME280;47485;51.378;-1.342;2022-08-14T12:36:18;99228.19;;;27.03;9.38
63339;BME280;47485;51.378;-1.342;2022-08-14T12:38:46;99225.25;;;28.13;9.74
63339;BME280;47485;51.378;-1.342;2022-08-14T12:41:15;99227.07;;;26.34;10.26
63339;BME280;47485;51.378;-1.342;2022-08-14T12:43:44;99217.86;;;28.82;9.21
63339;BME280;47485;51.378;-1.342;2022-08-14T12:46:20;99218.53;;;27.07;10.46
63339;BME280;47485;51.378;-1.342;2022-08-14T12:48:48;99214.70;;;28.41;9.45
63339;BME280;47485;51.378;-1.342;2022-08-14T12:51:16;99210.65;;;28.34;9.84
63339;BME280;47485;51.378;-1.342;2022-08-14T12:53:43;99213.14;;;23.54;10.83
63339;BME280;47485;51.378;-1.342;2022-08-14T12:56:10;99206.61;;;27.55;10.21
63339;BME280;47485;51.378;-1.342;2022-08-14T12:58:38;99203.85;;;25.80;10.03